createdAt,value
2019-01-06T00:00:54.258Z,98.63
2019-01-06T00:06:13.815Z,75.60
2019-01-06T00:11:36.667Z,85.07
2019-01-06T00:16:39.870Z,73.83
2019-01-06T00:21:48.985Z,79.83
2019-01-06T00:26:52.309Z,106.03
2019-01-06T00:31:56.259Z,113.67
2019-01-06T00:37:19.280Z,126.30
2019-01-06T00:42:35.802Z,103.83
2019-01-06T00:47:39.681Z,104.90
2019-01-06T00:52:43.720Z,102.57
2019-01-06T00:58:03.748Z,104.63
2019-01-06T01:03:10.254Z,118.23
2019-01-06T01:08:20.928Z,109.27
2019-01-06T01:13:24.330Z,100.80
2019-01-06T01:18:34.755Z,116.53
2019-01-06T01:23:45.179Z,91.87
2019-01-06T01:28:52.755Z,89.17
2019-01-06T01:33:56.299Z,101.03
2019-01-06T01:39:03.675Z,83.03
2019-01-06T01:44:08.262Z,90.23
2019-01-06T01:49:18.998Z,117.97
2019-01-06T01:54:20.610Z,81.17
2019-01-06T01:59:23.933Z,99.83
2019-01-06T02:04:28.644Z,100.40
2019-01-06T02:09:42.339Z,68.33
2019-01-06T02:14:40.528Z,57.70
2019-01-06T02:19:43.917Z,54.80
2019-01-06T02:25:00.392Z,53.83
2019-01-06T02:30:03.785Z,77.77
2019-01-06T02:35:08.394Z,57.60
2019-01-06T02:40:16.077Z,65.20
2019-01-06T02:45:19.465Z,60.03
2019-01-06T02:50:23.114Z,62.80
2019-01-06T02:55:26.606Z,72.97
2019-01-06T03:00:30.072Z,64.60
2019-01-06T03:05:32.857Z,53.17
2019-01-06T03:10:46.226Z,50.20
2019-01-06T03:15:45.448Z,53.27
2019-01-06T03:20:55.875Z,61.47
2019-01-06T03:25:59.250Z,66.87
2019-01-06T03:31:12.961Z,51.20
2019-01-06T03:36:32.579Z,42.17
2019-01-06T03:41:40.479Z,29.60
2019-01-06T03:46:45.073Z,19.90
2019-01-06T03:51:45.395Z,10.50
2019-01-06T03:57:08.329Z,4.20
2019-01-06T04:02:20.694Z,5.10
2019-01-06T04:07:31.225Z,5.33
2019-01-06T04:12:50.805Z,0.87
2019-01-06T04:17:56.357Z,1.20
2019-01-06T04:23:16.146Z,1.60
2019-01-06T04:28:24.028Z,1.17
2019-01-06T04:33:47.018Z,3.13
2019-01-06T04:38:54.827Z,0.40
2019-01-06T04:44:04.971Z,1.23
2019-01-06T04:49:08.677Z,1.13
2019-01-06T04:54:16.285Z,2.43
2019-01-06T04:59:26.652Z,1.27
2019-01-06T05:04:30.175Z,1.00
2019-01-06T05:09:34.813Z,2.07
2019-01-06T05:14:39.978Z,1.23
2019-01-06T05:19:44.589Z,1.00
2019-01-06T05:25:06.874Z,2.10
2019-01-06T05:30:10.830Z,11.23
2019-01-06T05:35:26.685Z,20.53
2019-01-06T05:40:47.115Z,34.93
2019-01-06T05:46:03.848Z,43.67
2019-01-06T05:51:25.247Z,47.53
2019-01-06T05:56:36.367Z,39.03
2019-01-06T06:01:46.880Z,29.90
2019-01-06T06:06:58.326Z,25.50
2019-01-06T06:12:03.018Z,29.07
2019-01-06T06:17:07.752Z,21.67
2019-01-06T06:22:15.498Z,19.80
2019-01-06T06:27:20.165Z,11.40
2019-01-06T06:32:23.463Z,2.23
2019-01-06T06:37:31.674Z,2.10
2019-01-06T06:42:45.697Z,1.10
2019-01-06T06:47:56.934Z,1.70
2019-01-06T06:53:11.842Z,1.50
2019-01-06T06:58:38.354Z,0.70
2019-01-06T07:03:56.731Z,0.40
2019-01-06T07:09:01.067Z,0.43
2019-01-06T07:14:12.728Z,0.77
2019-01-06T07:19:24.641Z,0.40
2019-01-06T07:24:44.542Z,0.40
2019-01-06T07:30:07.411Z,0.30
2019-01-06T07:35:11.921Z,0.70
2019-01-06T07:40:18.106Z,1.43
2019-01-06T07:45:41.010Z,0.70
2019-01-06T07:50:54.450Z,2.07
2019-01-06T07:55:58.003Z,2.37
2019-01-06T08:00:54.223Z,20.83
2019-01-06T08:06:11.578Z,24.63
2019-01-06T08:11:19.187Z,24.97
2019-01-06T08:16:26.793Z,35.40
2019-01-06T08:21:30.277Z,21.97
2019-01-06T08:26:35.207Z,28.83
2019-01-06T08:31:38.868Z,34.20
2019-01-06T08:36:42.051Z,31.73
2019-01-06T08:41:52.969Z,36.80
2019-01-06T08:47:00.630Z,38.33
2019-01-06T08:52:08.141Z,25.97
2019-01-06T08:57:18.832Z,32.80
2019-01-06T09:02:32.505Z,26.70
2019-01-06T09:07:35.796Z,40.17
2019-01-06T09:12:43.292Z,47.33
2019-01-06T09:17:46.984Z,51.57
2019-01-06T09:22:55.077Z,88.03
2019-01-06T09:28:02.298Z,65.57
2019-01-06T09:33:19.112Z,47.57
2019-01-06T09:38:22.456Z,41.57
2019-01-06T09:43:25.617Z,43.30
2019-01-06T09:48:48.467Z,36.13
2019-01-06T09:54:01.500Z,35.80
2019-01-06T09:59:09.199Z,37.20
2019-01-06T10:04:12.618Z,38.43
2019-01-06T10:09:17.227Z,38.13
2019-01-06T10:14:19.101Z,48.73
2019-01-06T10:19:22.324Z,38.10
2019-01-06T10:24:42.014Z,32.07
2019-01-06T10:29:45.264Z,34.43
2019-01-06T10:35:05.081Z,37.07
2019-01-06T10:40:08.533Z,35.10
2019-01-06T10:45:13.244Z,36.00
2019-01-06T10:50:28.351Z,28.97
2019-01-06T10:55:36.049Z,31.73
2019-01-06T11:00:39.439Z,31.50
2019-01-06T11:05:44.086Z,29.30
2019-01-06T11:11:00.592Z,28.30
2019-01-06T11:16:01.986Z,29.67
2019-01-06T11:21:06.686Z,23.50
2019-01-06T11:26:10.436Z,21.20
2019-01-06T11:31:33.451Z,24.17
2019-01-06T11:36:40.331Z,20.13
2019-01-06T11:42:04.394Z,18.77
2019-01-06T11:47:28.060Z,20.33
2019-01-06T11:52:31.493Z,22.27
2019-01-06T11:57:39.543Z,26.20
2019-01-06T12:02:43.444Z,26.17
2019-01-06T12:07:49.126Z,36.33
2019-01-06T12:12:56.768Z,21.13
2019-01-06T12:18:00.745Z,26.40
2019-01-06T12:23:03.864Z,25.67
2019-01-06T12:28:11.826Z,33.87
2019-01-06T12:33:14.155Z,18.10
2019-01-06T12:38:18.032Z,15.43
2019-01-06T12:43:29.110Z,24.50
2019-01-06T12:48:36.752Z,21.47
2019-01-06T12:53:41.539Z,14.87
2019-01-06T12:58:44.668Z,13.33
2019-01-06T13:03:47.999Z,15.90
2019-01-06T13:09:05.183Z,12.50
2019-01-06T13:14:08.730Z,12.13
2019-01-06T13:19:16.230Z,11.60
2019-01-06T13:24:24.208Z,9.27
2019-01-06T13:29:47.131Z,9.63
2019-01-06T13:35:00.282Z,12.03
2019-01-06T13:40:03.655Z,14.27
2019-01-06T13:45:14.373Z,18.83
2019-01-06T13:50:17.846Z,17.57
2019-01-06T13:55:28.580Z,14.80
2019-01-06T14:00:32.767Z,31.77
2019-01-06T14:05:52.523Z,23.23
2019-01-06T14:11:03.565Z,11.73
2019-01-06T14:16:08.254Z,11.77
2019-01-06T14:21:21.805Z,8.23
2019-01-06T14:26:29.422Z,17.20
2019-01-06T14:31:32.264Z,7.63
2019-01-06T14:36:35.372Z,7.80
2019-01-06T14:41:38.716Z,12.37
2019-01-06T14:46:43.538Z,11.30
2019-01-06T14:52:03.779Z,13.27
2019-01-06T14:57:23.891Z,18.93
2019-01-06T15:02:37.575Z,20.67
2019-01-06T15:07:45.643Z,11.20
2019-01-06T15:12:59.752Z,16.03
2019-01-06T15:18:07.454Z,17.13
2019-01-06T15:23:14.875Z,72.93
2019-01-06T15:33:59.378Z,21.37
2019-01-06T15:38:56.195Z,30.97
2019-01-06T15:44:00.009Z,25.53
2019-01-06T15:49:13.708Z,44.50
2019-01-06T15:54:36.525Z,38.90
2019-01-06T15:59:39.834Z,39.50
2019-01-06T16:04:44.526Z,36.03
2019-01-06T16:10:04.139Z,31.50
2019-01-06T16:15:18.061Z,30.97
2019-01-06T16:20:31.993Z,32.90
2019-01-06T16:25:30.392Z,32.40
2019-01-06T16:30:50.482Z,28.97
2019-01-06T16:35:53.756Z,28.33
2019-01-06T16:41:01.308Z,28.00
2019-01-06T16:46:08.963Z,30.33
2019-01-06T16:51:16.570Z,32.30
2019-01-06T16:56:20.222Z,42.70
2019-01-06T17:01:27.608Z,33.10
2019-01-06T17:06:31.273Z,54.63
2019-01-06T17:11:51.018Z,47.27
2019-01-06T17:17:01.912Z,70.87
2019-01-06T17:22:12.788Z,50.67
2019-01-06T17:27:24.024Z,67.23
2019-01-06T17:32:31.944Z,43.90
2019-01-06T17:37:38.387Z,57.73
2019-01-06T17:42:56.716Z,43.63
2019-01-06T17:48:07.177Z,42.90
2019-01-06T17:53:10.560Z,42.23
2019-01-06T17:58:17.957Z,49.93
2019-01-06T18:03:28.538Z,36.30
2019-01-06T18:08:45.492Z,50.23
2019-01-06T18:13:50.072Z,48.13
2019-01-06T18:18:53.509Z,80.03
2019-01-06T18:23:57.239Z,248.60
2019-01-06T18:29:20.400Z,104.63
2019-01-06T18:34:24.582Z,57.73
2019-01-06T18:39:29.281Z,88.97
2019-01-06T18:44:32.814Z,72.83
2019-01-06T18:49:36.268Z,70.70
2019-01-06T18:54:39.565Z,74.90
2019-01-06T18:59:43.289Z,63.03
2019-01-06T19:04:53.766Z,58.13
2019-01-06T19:10:10.645Z,63.30
2019-01-06T19:15:21.330Z,61.47
2019-01-06T19:20:44.904Z,64.83
2019-01-06T19:25:48.525Z,58.30
2019-01-06T19:30:50.449Z,57.40
2019-01-06T19:35:54.106Z,44.10
2019-01-06T19:40:57.702Z,37.93
2019-01-06T19:46:02.217Z,53.57
2019-01-06T19:51:05.635Z,47.13
2019-01-06T19:56:10.463Z,52.60
2019-01-06T20:01:21.503Z,44.77
2019-01-06T20:06:25.134Z,44.37
2019-01-06T20:11:28.389Z,40.37
2019-01-06T20:16:33.107Z,46.10
2019-01-06T20:21:36.485Z,48.67
2019-01-06T20:26:49.400Z,52.00
2019-01-06T20:31:55.976Z,59.00
2019-01-06T20:37:07.668Z,54.60
2019-01-06T20:42:15.528Z,59.83
2019-01-06T20:47:19.183Z,61.30
2019-01-06T20:52:27.001Z,48.60
2019-01-06T20:57:40.965Z,37.83
2019-01-06T21:02:52.104Z,41.43
2019-01-06T21:07:56.099Z,40.53
2019-01-06T21:12:59.780Z,53.37
2019-01-06T21:18:04.752Z,73.90
2019-01-06T21:23:26.989Z,73.83
2019-01-06T21:28:24.415Z,68.60
2019-01-06T21:33:41.499Z,74.43
2019-01-06T21:38:45.323Z,85.20
2019-01-06T21:43:49.009Z,68.17
2019-01-06T21:48:57.063Z,61.80
2019-01-06T21:54:04.098Z,51.60
2019-01-06T21:59:09.968Z,44.27
2019-01-06T22:04:29.839Z,49.20
2019-01-06T22:09:37.601Z,43.63
2019-01-06T22:14:45.223Z,46.80
2019-01-06T22:19:48.463Z,53.80
2019-01-06T22:24:53.613Z,54.03
2019-01-06T22:30:06.765Z,64.43
2019-01-06T22:35:14.485Z,70.90
2019-01-06T22:40:17.884Z,52.50
2019-01-06T22:45:34.678Z,46.93
2019-01-06T22:50:57.768Z,40.43
2019-01-06T22:56:02.368Z,42.80
2019-01-06T23:01:19.096Z,38.43
2019-01-06T23:06:35.579Z,36.83
2019-01-06T23:11:38.975Z,37.10
2019-01-06T23:16:42.327Z,38.90
2019-01-06T23:21:55.998Z,34.33
2019-01-06T23:27:12.819Z,37.10
2019-01-06T23:32:32.759Z,35.60
2019-01-06T23:37:40.131Z,35.13
2019-01-06T23:42:40.805Z,37.67
2019-01-06T23:47:45.548Z,41.83
2019-01-06T23:52:43.930Z,59.23
2019-01-06T23:57:47.152Z,43.87
